Time;durP1;ratioP1;P1;durP2;ratioP2;P2;SDS_P1;SDS_P2;PMS_P1;PMS_P2;Temp;Humidity;BMP_temperature;BMP_pressure;BME280_temperature;BME280_humidity;BME280_pressure;Samples;Min_cycle;Max_cycle;Signal;HPM_P1;HPM_P2
2021/11/10 00:01:55;;;;;;;25.08;15.52;;;4.80;99.90;;;;;;5013372;28;20033;-49
2021/11/10 00:04:21;;;;;;;131.15;69.80;;;4.80;99.90;;;;;;5013484;28;20030;-49
2021/11/10 00:06:47;;;;;;;18.10;12.15;;;4.70;99.90;;;;;;5013223;28;20096;-49
2021/11/10 00:09:13;;;;;;;15.45;7.90;;;4.80;99.90;;;;;;5041849;23;20099;-54
2021/11/10 00:11:39;;;;;;;13.65;8.25;;;4.70;99.90;;;;;;5031949;28;20450;-50
2021/11/10 00:14:05;;;;;;;16.20;7.50;;;4.60;99.90;;;;;;5031002;28;20030;-51
2021/11/10 00:16:30;;;;;;;14.02;8.23;;;4.60;99.90;;;;;;5030188;28;20486;-49
2021/11/10 00:18:56;;;;;;;18.13;8.15;;;4.50;99.90;;;;;;5031007;28;20026;-52
2021/11/10 00:21:23;;;;;;;13.13;8.63;;;4.50;99.90;;;;;;5029518;28;20025;-56
2021/11/10 00:23:49;;;;;;;19.52;9.68;;;4.40;99.90;;;;;;5029725;28;20506;-52
2021/11/10 00:26:14;;;;;;;16.20;7.80;;;4.40;99.90;;;;;;5028863;28;20029;-49
2021/11/10 00:28:40;;;;;;;14.75;8.15;;;4.40;99.90;;;;;;5030679;28;20064;-54
2021/11/10 00:31:06;;;;;;;18.52;9.32;;;4.40;99.90;;;;;;5031186;28;20127;-51
2021/11/10 00:33:32;;;;;;;14.10;8.05;;;4.40;99.90;;;;;;5030803;28;20084;-51
2021/11/10 00:35:58;;;;;;;13.25;8.73;;;4.30;99.90;;;;;;5031797;28;20029;-52
2021/11/10 00:38:23;;;;;;;15.48;9.40;;;4.30;99.90;;;;;;5032131;28;20391;-52
2021/11/10 00:40:49;;;;;;;17.23;8.35;;;4.40;99.90;;;;;;5032423;28;20029;-52
2021/11/10 00:43:14;;;;;;;14.93;9.20;;;4.30;99.90;;;;;;5032355;28;20036;-56
2021/11/10 00:45:40;;;;;;;13.70;8.50;;;4.30;99.90;;;;;;5032381;28;20048;-51
2021/11/10 00:48:06;;;;;;;22.83;10.13;;;4.20;99.90;;;;;;5031764;28;20395;-50
2021/11/10 00:50:35;;;;;;;16.48;8.32;;;4.10;99.90;;;;;;5032736;28;20025;-51
2021/11/10 00:53:03;;;;;;;19.52;8.68;;;4.00;99.90;;;;;;5032310;28;20037;-53
2021/11/10 00:55:29;;;;;;;14.07;8.60;;;4.00;99.90;;;;;;5030419;28;20040;-55
2021/11/10 00:57:55;;;;;;;11.65;8.18;;;3.80;99.90;;;;;;5031135;28;20498;-52
2021/11/10 01:00:22;;;;;;;15.38;8.45;;;3.70;99.90;;;;;;5031860;28;20022;-54
2021/11/10 01:02:48;;;;;;;14.00;7.90;;;3.70;99.90;;;;;;5032043;28;20054;-48
2021/11/10 01:05:14;;;;;;;11.15;7.63;;;3.70;99.90;;;;;;5031652;28;20516;-48
2021/11/10 01:07:40;;;;;;;16.80;9.07;;;3.70;99.90;;;;;;5029073;28;20024;-51
2021/11/10 01:10:07;;;;;;;13.75;8.40;;;3.80;99.90;;;;;;5031637;28;20048;-47
2021/11/10 01:12:32;;;;;;;18.55;8.75;;;3.70;99.90;;;;;;5031716;28;20026;-48
2021/11/10 01:14:58;;;;;;;17.50;9.13;;;3.80;99.90;;;;;;5030386;28;20026;-49
2021/11/10 01:17:24;;;;;;;14.93;9.07;;;3.80;99.90;;;;;;5030839;28;20033;-47
2021/11/10 01:19:50;;;;;;;15.00;9.82;;;3.90;99.90;;;;;;5031653;28;20025;-47
2021/11/10 01:22:16;;;;;;;16.80;8.90;;;3.90;99.90;;;;;;5031963;28;20029;-47
2021/11/10 01:24:42;;;;;;;15.57;8.88;;;3.80;99.90;;;;;;5030217;28;20368;-47
2021/11/10 01:27:08;;;;;;;12.70;8.68;;;3.80;99.90;;;;;;5030811;28;20036;-47
2021/11/10 01:29:34;;;;;;;18.20;9.40;;;4.00;99.90;;;;;;5031386;28;20064;-50
2021/11/10 01:32:00;;;;;;;17.02;8.95;;;3.90;99.90;;;;;;5030080;28;20053;-52
2021/11/10 01:34:25;;;;;;;14.93;9.82;;;3.90;99.90;;;;;;5031308;28;20024;-49
2021/11/10 01:36:51;;;;;;;16.77;9.73;;;3.80;99.90;;;;;;5030613;28;20108;-52
2021/11/10 01:39:17;;;;;;;14.52;10.23;;;3.70;99.90;;;;;;5030957;28;20025;-53
2021/11/10 01:41:47;;;;;;;15.80;9.90;;;3.60;99.90;;;;;;5031284;28;20025;-47
2021/11/10 01:44:17;;;;;;;16.13;10.35;;;3.60;99.90;;;;;;5031016;28;20014;-47
2021/11/10 01:46:44;;;;;;;17.35;9.70;;;3.40;99.90;;;;;;5030517;28;20315;-49
2021/11/10 01:49:10;;;;;;;17.90;9.57;;;;;;;;;;5030924;28;20540;-54
2021/11/10 01:51:45;;;;;;;18.00;9.10;;;3.40;99.90;;;;;;5030785;28;20395;-51
2021/11/10 01:54:12;;;;;;;17.67;9.05;;;3.40;99.90;;;;;;5031174;28;20030;-50
2021/11/10 01:56:39;;;;;;;20.48;10.48;;;3.30;99.90;;;;;;5030190;28;20029;-50
2021/11/10 01:59:06;;;;;;;19.17;9.13;;;3.30;99.90;;;;;;5030749;28;20037;-50
2021/11/10 02:01:31;;;;;;;14.60;9.57;;;3.30;99.90;;;;;;5030836;28;20112;-52
2021/11/10 02:03:57;;;;;;;13.63;8.57;;;3.30;99.90;;;;;;5029556;28;20068;-47
2021/11/10 02:06:23;;;;;;;18.40;9.35;;;3.20;99.90;;;;;;5029998;28;20025;-49
2021/11/10 02:08:49;;;;;;;20.83;9.73;;;3.30;99.90;;;;;;5030595;28;20036;-50
2021/11/10 02:11:14;;;;;;;16.38;9.95;;;3.30;99.90;;;;;;5030952;28;20025;-49
2021/11/10 02:13:40;;;;;;;19.88;9.75;;;3.30;99.90;;;;;;5030768;28;20053;-52
2021/11/10 02:16:06;;;;;;;15.60;8.20;;;3.30;99.90;;;;;;5030558;28;20396;-52
2021/11/10 02:18:32;;;;;;;17.92;10.23;;;3.30;99.90;;;;;;5030280;28;20032;-51
2021/11/10 02:20:58;;;;;;;10.95;8.63;;;3.30;99.90;;;;;;5030694;28;20025;-47
2021/11/10 02:23:23;;;;;;;13.93;8.75;;;3.20;99.90;;;;;;5030616;28;20037;-47
2021/11/10 02:25:55;;;;;;;15.50;8.98;;;3.20;99.90;;;;;;5030474;28;20026;-50
2021/11/10 02:28:21;;;;;;;12.10;9.02;;;3.20;99.90;;;;;;5029674;28;20090;-51
2021/11/10 02:30:47;;;;;;;19.90;9.35;;;3.30;99.90;;;;;;5029087;28;20112;-49
2021/11/10 02:33:13;;;;;;;19.90;10.52;;;3.20;99.90;;;;;;5029187;28;20029;-51
2021/11/10 02:35:39;;;;;;;16.38;9.45;;;3.10;99.90;;;;;;5030218;28;20029;-51
2021/11/10 02:38:07;;;;;;;13.13;9.27;;;3.20;99.90;;;;;;5029478;28;20033;-53
2021/11/10 02:40:33;;;;;;;21.02;9.65;;;3.10;99.90;;;;;;5030261;28;20025;-51
2021/11/10 02:42:59;;;;;;;17.70;9.88;;;3.10;99.90;;;;;;5028916;28;20078;-50
2021/11/10 02:45:26;;;;;;;17.10;10.02;;;3.10;99.90;;;;;;5030253;28;20168;-52
2021/11/10 02:47:52;;;;;;;18.38;10.07;;;3.10;99.90;;;;;;5029442;28;20121;-51
2021/11/10 02:50:18;;;;;;;16.08;9.32;;;3.10;99.90;;;;;;5030491;28;20160;-50
2021/11/10 02:52:44;;;;;;;19.90;10.38;;;3.10;99.90;;;;;;5030303;28;20029;-48
2021/11/10 02:55:10;;;;;;;15.95;10.70;;;3.20;99.90;;;;;;5029491;28;20025;-52
2021/11/10 02:57:36;;;;;;;14.00;9.98;;;3.10;99.90;;;;;;5033690;28;20033;-52
2021/11/10 03:00:06;;;;;;;17.80;10.13;;;3.10;99.90;;;;;;5034183;28;20032;-53
2021/11/10 03:02:32;;;;;;;17.48;10.00;;;3.20;99.90;;;;;;5034055;28;20032;-50
2021/11/10 03:04:59;;;;;;;19.63;10.88;;;3.10;99.90;;;;;;5032213;28;20029;-50
2021/11/10 03:07:25;;;;;;;16.95;10.05;;;3.10;99.90;;;;;;5033067;28;20022;-53
2021/11/10 03:09:51;;;;;;;15.88;9.30;;;3.20;99.90;;;;;;5033751;28;20112;-53
2021/11/10 03:12:18;;;;;;;14.43;9.93;;;3.20;99.90;;;;;;5033802;28;20024;-53
2021/11/10 03:14:45;;;;;;;13.32;9.43;;;3.20;99.90;;;;;;5033818;28;20107;-51
2021/11/10 03:17:13;;;;;;;13.82;9.15;;;3.20;99.90;;;;;;5032892;28;20521;-52
2021/11/10 03:19:39;;;;;;;12.93;8.95;;;3.10;99.90;;;;;;5033527;28;20049;-50
2021/11/10 03:22:07;;;;;;;14.80;8.20;;;3.20;99.90;;;;;;5033583;28;20391;-50
2021/11/10 03:24:34;;;;;;;15.52;9.77;;;3.30;99.90;;;;;;5033614;28;20033;-53
2021/11/10 03:27:00;;;;;;;19.38;9.10;;;3.20;99.90;;;;;;5031759;28;20075;-52
2021/11/10 03:29:25;;;;;;;16.08;8.45;;;3.50;99.90;;;;;;5033570;28;20136;-48
2021/11/10 03:31:51;;;;;;;12.70;8.80;;;3.20;99.90;;;;;;5033577;28;20025;-52
2021/11/10 03:34:17;;;;;;;13.07;8.10;;;3.30;99.90;;;;;;5033830;28;20036;-49
2021/11/10 03:36:43;;;;;;;12.55;8.45;;;3.30;99.90;;;;;;5033178;28;20037;-48
2021/11/10 03:39:13;;;;;;;11.80;8.80;;;3.30;99.90;;;;;;5033503;28;20034;-51
2021/11/10 03:41:39;;;;;;;14.27;8.82;;;3.40;99.90;;;;;;5033485;28;20564;-48
2021/11/10 03:44:05;;;;;;;12.10;8.05;;;3.40;99.90;;;;;;5033344;28;20029;-53
2021/11/10 03:46:31;;;;;;;17.55;8.63;;;3.40;99.90;;;;;;5032474;28;20025;-51
2021/11/10 03:48:56;;;;;;;14.52;8.52;;;3.40;99.90;;;;;;5033311;28;20441;-50
2021/11/10 03:51:22;;;;;;;16.42;8.68;;;3.40;99.90;;;;;;5031877;28;20021;-49
2021/11/10 03:53:48;;;;;;;11.35;8.98;;;3.40;99.90;;;;;;5033023;28;20017;-51
2021/11/10 03:56:14;;;;;;;10.95;8.35;;;3.40;99.90;;;;;;5032507;28;20116;-52
2021/11/10 03:58:39;;;;;;;15.25;8.65;;;3.40;99.90;;;;;;5032758;28;20113;-54
2021/11/10 04:01:06;;;;;;;17.25;8.88;;;3.50;99.90;;;;;;5032929;28;20029;-50
2021/11/10 04:03:33;;;;;;;13.60;8.93;;;3.50;99.90;;;;;;5032847;28;20029;-53
2021/11/10 04:05:59;;;;;;;13.63;7.93;;;3.50;99.90;;;;;;5032854;28;20052;-49
2021/11/10 04:08:24;;;;;;;15.23;9.32;;;3.40;99.90;;;;;;5030743;28;20037;-48
2021/11/10 04:10:50;;;;;;;11.35;8.07;;;3.30;99.90;;;;;;5032842;28;20057;-51
2021/11/10 04:13:16;;;;;;;11.38;8.68;;;3.30;99.90;;;;;;5032759;28;20040;-49
2021/11/10 04:15:42;;;;;;;14.07;9.15;;;3.30;99.90;;;;;;5032975;28;20585;-50
2021/11/10 04:18:08;;;;;;;11.45;8.20;;;3.30;99.90;;;;;;5032033;28;20025;-53
2021/11/10 04:20:33;;;;;;;13.65;8.38;;;3.30;99.90;;;;;;5032830;28;20029;-53
2021/11/10 04:22:59;;;;;;;12.50;9.05;;;3.30;99.90;;;;;;5033195;28;20527;-52
2021/11/10 04:25:25;;;;;;;17.40;8.70;;;3.30;99.90;;;;;;5031132;28;20426;-49
2021/11/10 04:27:52;;;;;;;14.43;9.25;;;3.30;99.90;;;;;;5030607;28;20018;-48
2021/11/10 04:30:18;;;;;;;11.98;8.50;;;3.30;99.90;;;;;;5032634;28;20088;-48
2021/11/10 04:32:44;;;;;;;13.77;9.20;;;3.20;99.90;;;;;;5031412;28;20028;-52
2021/11/10 04:35:12;;;;;;;16.58;10.13;;;3.30;99.90;;;;;;5032444;28;20032;-53
2021/11/10 04:37:38;;;;;;;19.77;9.98;;;3.30;99.90;;;;;;5031726;28;20418;-47
2021/11/10 04:40:06;;;;;;;21.13;11.07;;;3.40;99.90;;;;;;5032457;28;20511;-48
2021/11/10 04:42:31;;;;;;;21.85;11.23;;;3.30;99.90;;;;;;5032214;28;20083;-48
2021/11/10 04:45:08;;;;;;;17.45;11.32;;;3.20;99.90;;;;;;5031136;28;20029;-50
2021/11/10 04:47:35;;;;;;;17.60;10.13;;;3.10;99.90;;;;;;5031407;28;20478;-50
2021/11/10 04:50:03;;;;;;;24.23;11.05;;;2.90;99.90;;;;;;5030917;28;20498;-47
2021/11/10 04:52:29;;;;;;;17.25;9.98;;;2.80;99.90;;;;;;5031989;28;20021;-53
2021/11/10 04:54:54;;;;;;;21.77;10.32;;;2.80;99.90;;;;;;5032017;28;20078;-50
2021/11/10 04:57:20;;;;;;;24.25;10.85;;;2.70;99.90;;;;;;5029849;28;20625;-52
2021/11/10 04:59:46;;;;;;;18.02;10.85;;;2.60;99.90;;;;;;5031466;28;20068;-51
2021/11/10 05:04:40;;;;;;;15.27;10.07;;;2.60;99.90;;;;;;5031717;28;20151;-52
2021/11/10 05:07:06;;;;;;;15.95;10.90;;;2.40;99.90;;;;;;5028634;28;20028;-51
2021/11/10 05:09:32;;;;;;;17.00;11.02;;;2.40;99.90;;;;;;5030284;28;20044;-51
2021/11/10 05:11:58;;;;;;;15.52;10.95;;;2.40;99.90;;;;;;5031534;28;20022;-51
2021/11/10 05:14:24;;;;;;;17.42;11.13;;;2.40;99.90;;;;;;5031641;28;20028;-49
2021/11/10 05:16:51;;;;;;;18.95;11.98;;;2.40;99.90;;;;;;5031072;28;20029;-48
2021/11/10 05:19:16;;;;;;;15.45;11.05;;;2.30;99.90;;;;;;5031095;28;20079;-51
2021/11/10 05:21:42;;;;;;;19.92;10.55;;;2.20;99.90;;;;;;5031420;28;20417;-52
2021/11/10 05:24:09;;;;;;;15.90;10.80;;;2.10;99.90;;;;;;5031792;28;20474;-48
2021/11/10 05:26:37;;;;;;;17.60;10.63;;;2.10;99.90;;;;;;5030480;28;20394;-50
2021/11/10 05:29:03;;;;;;;21.15;11.27;;;2.20;99.90;;;;;;5031164;28;20471;-49
2021/11/10 05:31:28;;;;;;;18.90;11.73;;;2.10;99.90;;;;;;5031169;28;20038;-52
2021/11/10 05:33:54;;;;;;;16.58;10.20;;;2.20;99.90;;;;;;5031341;28;20522;-47
2021/11/10 05:36:19;;;;;;;15.70;10.57;;;2.20;99.90;;;;;;5030565;28;20026;-51
2021/11/10 05:38:45;;;;;;;25.20;10.23;;;2.20;99.90;;;;;;5030984;28;20049;-49
2021/11/10 05:41:11;;;;;;;19.35;11.10;;;2.20;99.90;;;;;;5029789;28;20033;-52
2021/11/10 05:43:36;;;;;;;17.20;11.68;;;2.10;99.90;;;;;;5030932;28;20108;-49
2021/11/10 05:46:04;;;;;;;17.75;11.93;;;2.20;99.90;;;;;;5029654;28;20034;-54
2021/11/10 05:48:30;;;;;;;18.08;12.00;;;2.20;99.90;;;;;;5030432;28;20018;-53
2021/11/10 05:50:56;;;;;;;18.00;11.45;;;2.20;99.90;;;;;;5030938;28;20027;-50
2021/11/10 05:53:22;;;;;;;21.77;12.38;;;2.10;99.90;;;;;;5030984;28;20104;-53
2021/11/10 05:55:52;;;;;;;18.35;11.13;;;2.10;99.90;;;;;;5029629;28;20220;-53
2021/11/10 05:58:18;;;;;;;22.25;12.30;;;2.10;99.90;;;;;;5029860;28;20434;-52
2021/11/10 06:00:43;;;;;;;22.00;11.75;;;2.20;99.90;;;;;;5030577;28;20057;-51
2021/11/10 06:03:09;;;;;;;24.33;13.70;;;2.20;99.90;;;;;;5029311;28;20399;-57
2021/11/10 06:05:35;;;;;;;18.40;12.13;;;2.20;99.90;;;;;;5029180;28;20022;-50
2021/11/10 06:08:00;;;;;;;17.58;11.18;;;2.10;99.90;;;;;;5029856;28;20041;-51
2021/11/10 06:10:26;;;;;;;19.55;11.05;;;2.00;99.90;;;;;;5029407;28;20028;-52
2021/11/10 06:12:51;;;;;;;14.98;11.02;;;2.10;99.90;;;;;;5029333;28;20442;-48
2021/11/10 06:15:17;;;;;;;20.60;11.43;;;2.10;99.90;;;;;;5030524;28;20029;-50
2021/11/10 06:17:43;;;;;;;18.17;11.60;;;2.10;99.90;;;;;;5029798;28;20086;-52
2021/11/10 06:20:10;;;;;;;19.50;11.43;;;2.20;99.90;;;;;;5030625;28;20112;-50
2021/11/10 06:22:36;;;;;;;20.75;11.85;;;2.20;99.90;;;;;;5029080;28;20025;-52
2021/11/10 06:25:04;;;;;;;19.88;12.55;;;2.30;99.90;;;;;;5030293;28;20036;-52
2021/11/10 06:27:29;;;;;;;19.30;12.40;;;2.30;99.90;;;;;;5029465;28;20056;-52
2021/11/10 06:29:55;;;;;;;19.33;11.50;;;2.30;99.90;;;;;;5029592;28;20060;-51
2021/11/10 06:32:21;;;;;;;16.92;10.60;;;2.30;99.90;;;;;;5028038;28;20041;-48
2021/11/10 06:34:47;;;;;;;26.58;11.52;;;2.30;99.90;;;;;;5030288;28;20037;-46
2021/11/10 06:37:12;;;;;;;17.35;11.13;;;2.40;99.90;;;;;;5028235;28;20087;-50
2021/11/10 06:39:38;;;;;;;21.35;11.95;;;2.50;99.90;;;;;;5030150;28;20033;-49
2021/11/10 06:42:04;;;;;;;16.58;10.88;;;2.50;99.90;;;;;;5029004;28;20566;-50
2021/11/10 06:44:30;;;;;;;25.30;12.73;;;2.60;99.90;;;;;;5029030;28;20029;-48
2021/11/10 06:46:59;;;;;;;23.00;13.25;;;2.60;99.90;;;;;;5029562;28;20489;-52
2021/11/10 06:49:28;;;;;;;21.85;12.55;;;2.70;99.90;;;;;;5030096;28;20513;-52
2021/11/10 06:51:55;;;;;;;19.60;11.13;;;2.70;99.90;;;;;;5028856;28;20398;-49
2021/11/10 06:54:21;;;;;;;25.23;11.27;;;2.70;99.90;;;;;;5030092;28;20017;-47
2021/11/10 06:56:49;;;;;;;24.23;12.13;;;2.70;99.90;;;;;;5028190;28;20433;-45
2021/11/10 06:59:15;;;;;;;14.65;10.27;;;2.70;99.90;;;;;;5030160;28;20025;-51
2021/11/10 07:01:40;;;;;;;18.88;10.93;;;2.70;99.90;;;;;;5030212;28;20037;-49
2021/11/10 07:04:06;;;;;;;17.40;10.13;;;2.80;99.90;;;;;;5030207;28;20030;-49
2021/11/10 07:06:31;;;;;;;20.30;10.40;;;2.80;99.90;;;;;;5027669;28;20167;-44
2021/11/10 07:08:57;;;;;;;18.02;10.50;;;2.90;99.90;;;;;;5030165;28;20403;-47
2021/11/10 07:11:23;;;;;;;14.80;9.38;;;3.00;99.90;;;;;;5030320;28;20026;-48
2021/11/10 07:13:48;;;;;;;17.88;10.57;;;3.00;99.90;;;;;;5030180;28;20022;-49
2021/11/10 07:16:15;;;;;;;16.58;9.93;;;3.10;99.90;;;;;;5029462;28;20038;-49
2021/11/10 07:18:40;;;;;;;15.05;9.93;;;3.10;99.90;;;;;;5029622;28;20398;-50
2021/11/10 07:21:07;;;;;;;16.65;10.45;;;3.10;99.90;;;;;;5029903;28;20113;-47
2021/11/10 07:23:33;;;;;;;13.68;9.57;;;3.20;99.90;;;;;;5030065;28;20033;-45
2021/11/10 07:25:59;;;;;;;15.45;9.98;;;3.20;99.90;;;;;;5029866;28;20548;-47
2021/11/10 07:28:24;;;;;;;12.35;9.38;;;3.20;99.90;;;;;;5028968;28;20104;-52
2021/11/10 07:30:51;;;;;;;16.00;9.23;;;3.20;99.90;;;;;;5029970;28;20032;-46
2021/11/10 07:33:17;;;;;;;15.40;9.93;;;3.20;99.90;;;;;;5030146;28;20082;-54
2021/11/10 07:35:43;;;;;;;16.48;9.75;;;3.20;99.90;;;;;;5029664;28;20034;-51
2021/11/10 07:38:09;;;;;;;14.65;9.70;;;3.20;99.90;;;;;;5029063;28;20032;-50
2021/11/10 07:40:35;;;;;;;18.20;9.80;;;3.10;99.90;;;;;;5029835;28;20026;-53
2021/11/10 07:43:00;;;;;;;14.98;9.85;;;3.20;99.90;;;;;;5031789;28;20124;-48
2021/11/10 07:45:35;;;;;;;17.95;10.93;;;3.30;99.90;;;;;;5033896;28;20032;-51
2021/11/10 07:48:02;;;;;;;16.75;8.98;;;3.30;99.90;;;;;;5031322;28;20029;-48
2021/11/10 07:50:29;;;;;;;13.52;9.50;;;3.30;99.90;;;;;;5033476;28;20391;-47
2021/11/10 07:52:55;;;;;;;15.90;10.48;;;3.40;99.90;;;;;;5033278;28;20545;-48
2021/11/10 07:55:21;;;;;;;15.05;10.45;;;3.50;99.90;;;;;;5033524;28;20029;-47
2021/11/10 07:57:46;;;;;;;15.48;9.80;;;3.60;99.90;;;;;;5032734;28;20059;-47
2021/11/10 08:00:16;;;;;;;14.27;9.98;;;3.70;99.90;;;;;;5033305;28;20491;-47
2021/11/10 08:02:42;;;;;;;16.73;10.43;;;3.80;99.90;;;;;;5033052;28;20021;-48
2021/11/10 08:05:09;;;;;;;17.30;10.60;;;3.90;99.90;;;;;;5033051;28;20034;-46
2021/11/10 08:07:35;;;;;;;15.35;10.38;;;3.90;99.90;;;;;;5032162;28;20107;-45
2021/11/10 08:10:01;;;;;;;17.35;11.20;;;3.80;99.90;;;;;;5032959;28;20061;-44
2021/11/10 08:12:27;;;;;;;15.65;10.48;;;3.80;99.90;;;;;;5032838;28;20053;-47
2021/11/10 08:14:53;;;;;;;16.15;9.32;;;3.80;99.90;;;;;;5033189;28;20057;-46
2021/11/10 08:17:19;;;;;;;25.70;9.90;;;3.80;99.90;;;;;;5032055;28;20526;-46
2021/11/10 08:19:44;;;;;;;26.08;10.95;;;3.80;99.90;;;;;;5032761;28;20025;-45
2021/11/10 08:22:10;;;;;;;14.40;9.32;;;3.80;99.90;;;;;;5033024;28;20104;-46
2021/11/10 08:24:36;;;;;;;17.38;10.82;;;3.80;99.90;;;;;;5032822;28;20503;-47
2021/11/10 08:27:02;;;;;;;16.95;9.20;;;3.90;99.90;;;;;;5032339;28;20433;-48
2021/11/10 08:29:27;;;;;;;15.95;10.35;;;3.80;99.90;;;;;;5032687;28;20113;-47
2021/11/10 08:31:53;;;;;;;16.13;10.43;;;3.80;99.90;;;;;;5031393;28;20108;-46
2021/11/10 08:34:19;;;;;;;18.05;9.70;;;3.80;99.90;;;;;;5031647;28;20076;-46
2021/11/10 08:36:45;;;;;;;18.40;10.48;;;3.70;99.90;;;;;;5032074;28;20398;-50
2021/11/10 08:39:10;;;;;;;18.30;10.07;;;3.80;99.90;;;;;;5031077;28;20490;-49
2021/11/10 08:41:36;;;;;;;14.65;9.98;;;3.90;99.90;;;;;;5032444;28;20286;-48
2021/11/10 08:44:03;;;;;;;14.82;10.27;;;4.00;99.90;;;;;;5032268;28;20140;-51
2021/11/10 08:46:29;;;;;;;16.80;9.98;;;4.20;99.90;;;;;;5031396;28;20491;-45
2021/11/10 08:48:54;;;;;;;20.15;11.23;;;4.40;99.90;;;;;;5031896;28;20029;-49
2021/11/10 08:51:20;;;;;;;16.10;8.98;;;4.90;99.90;;;;;;5030676;28;20067;-47
2021/11/10 08:53:46;;;;;;;12.90;8.55;;;5.50;99.90;;;;;;5031387;28;20495;-50
2021/11/10 08:56:13;;;;;;;20.45;8.75;;;6.00;99.90;;;;;;5030246;28;20029;-48
2021/11/10 08:58:39;;;;;;;14.23;8.70;;;6.40;99.90;;;;;;5031985;28;20065;-46
2021/11/10 09:01:04;;;;;;;14.43;9.13;;;6.80;99.90;;;;;;5021780;28;20069;-46
2021/11/10 09:03:30;;;;;;;12.82;8.63;;;7.20;99.90;;;;;;5012599;28;20080;-52
2021/11/10 09:05:56;;;;;;;14.35;9.45;;;7.70;99.90;;;;;;5016424;28;20029;-50
2021/11/10 09:08:27;;;;;;;10.05;7.93;;;8.20;99.90;;;;;;5020899;28;20053;-59
2021/11/10 09:10:53;;;;;;;15.48;8.90;;;8.80;99.90;;;;;;5031976;28;20033;-51
2021/11/10 09:13:19;;;;;;;12.75;8.18;;;9.20;99.90;;;;;;5021848;28;20033;-47
2021/11/10 09:15:45;;;;;;;15.07;9.30;;;9.60;99.90;;;;;;5031011;28;20021;-49
2021/11/10 09:18:11;;;;;;;10.18;8.68;;;10.10;99.90;;;;;;5024494;28;20129;-47
2021/11/10 09:20:38;;;;;;;13.35;8.70;;;10.40;99.00;;;;;;5024431;28;20040;-48
2021/11/10 09:23:05;;;;;;;16.23;8.77;;;10.60;98.10;;;;;;5031733;28;20029;-53
2021/11/10 09:25:32;;;;;;;11.95;8.07;;;10.50;98.50;;;;;;5026842;28;20037;-47
2021/11/10 09:28:01;;;;;;;17.42;8.57;;;10.50;98.20;;;;;;5010787;28;20038;-51
2021/11/10 09:30:28;;;;;;;12.73;9.13;;;10.70;98.10;;;;;;5012894;28;20030;-52
2021/11/10 09:32:56;;;;;;;15.60;8.70;;;11.00;97.90;;;;;;5025069;28;20551;-47
2021/11/10 09:35:23;;;;;;;12.60;8.10;;;11.40;96.70;;;;;;5019838;28;20036;-47
2021/11/10 09:37:50;;;;;;;14.00;8.20;;;11.40;96.30;;;;;;5011041;28;20087;-54
2021/11/10 09:40:17;;;;;;;10.52;7.95;;;11.60;96.90;;;;;;5010364;28;20026;-52
2021/11/10 09:42:43;;;;;;;8.77;7.63;;;11.60;96.30;;;;;;5011499;28;20034;-48
2021/11/10 09:45:14;;;;;;;15.55;8.15;;;12.00;95.80;;;;;;5011503;28;20029;-51
2021/11/10 09:47:41;;;;;;;9.48;7.50;;;12.40;94.50;;;;;;5010765;28;20022;-51
2021/11/10 09:50:09;;;;;;;15.15;7.90;;;12.70;94.20;;;;;;5023603;28;20021;-51
2021/11/10 09:52:35;;;;;;;13.73;7.68;;;12.80;93.50;;;;;;5027236;28;20028;-55
2021/11/10 09:55:02;;;;;;;12.57;8.38;;;13.00;93.30;;;;;;5029516;28;20037;-51
2021/11/10 09:57:28;;;;;;;8.88;7.05;;;13.40;93.00;;;;;;5023289;28;20037;-48
2021/11/10 09:59:54;;;;;;;13.30;8.30;;;13.70;92.20;;;;;;5009258;28;20084;-48
2021/11/10 10:02:20;;;;;;;11.55;6.85;;;13.80;91.40;;;;;;5010705;28;20045;-47
2021/11/10 10:04:46;;;;;;;14.82;7.82;;;13.70;91.60;;;;;;5010483;28;20032;-50
2021/11/10 10:07:12;;;;;;;16.30;7.20;;;13.90;91.50;;;;;;5010383;28;20018;-49
2021/11/10 10:09:39;;;;;;;12.98;7.85;;;13.90;91.00;;;;;;5025277;28;20037;-50
2021/11/10 10:12:06;;;;;;;12.13;8.50;;;13.60;91.80;;;;;;5013445;28;20083;-48
2021/11/10 10:14:34;;;;;;;11.13;8.10;;;13.30;92.30;;;;;;5019255;28;20060;-46
2021/11/10 10:17:02;;;;;;;13.50;8.75;;;13.20;92.40;;;;;;5010809;28;20069;-50
2021/11/10 10:19:39;;;;;;;12.88;8.20;;;12.50;92.60;;;;;;5011036;28;20029;-45
2021/11/10 10:22:05;;;;;;;11.48;7.40;;;12.00;93.70;;;;;;5011117;28;20341;-47
2021/11/10 10:24:48;;;;;;;15.88;8.98;;;11.50;95.20;;;;;;5011824;28;20040;-45
2021/11/10 10:27:29;;;;;;;11.43;8.32;;;11.10;96.00;;;;;;5010803;28;20479;-46
2021/11/10 10:30:32;;;;;;;12.70;8.98;;;10.60;97.60;;;;;;5020666;28;20022;-54
2021/11/10 10:33:17;;;;;;;14.30;9.82;;;10.20;99.10;;;;;;5022429;28;20033;-54
2021/11/10 10:35:46;;;;;;;16.45;9.23;;;9.30;99.90;;;;;;5010565;28;20034;-55
2021/11/10 10:38:18;;;;;;;20.00;9.32;;;8.70;99.90;;;;;;5009771;28;20033;-56
2021/11/10 10:40:46;;;;;;;11.30;8.20;;;8.10;99.90;;;;;;5009171;28;20080;-53
2021/11/10 10:43:12;;;;;;;16.67;9.23;;;7.80;99.90;;;;;;5008853;28;20372;-57
2021/11/10 10:45:41;;;;;;;15.07;9.80;;;7.70;99.90;;;;;;5008881;28;20026;-54
2021/11/10 10:48:13;;;;;;;14.80;10.18;;;7.70;99.90;;;;;;5009836;28;20388;-53
2021/11/10 10:50:49;;;;;;;12.50;10.02;;;7.80;99.90;;;;;;5010411;28;20471;-54
2021/11/10 10:53:31;;;;;;;12.20;9.57;;;7.80;99.90;;;;;;5010386;28;20085;-55
2021/11/10 10:55:57;;;;;;;12.77;9.27;;;7.60;99.90;;;;;;5009146;28;20041;-55
2021/11/10 10:58:31;;;;;;;15.82;9.45;;;7.50;99.90;;;;;;5008237;28;20034;-55
2021/11/10 11:01:16;;;;;;;11.75;9.75;;;7.40;99.90;;;;;;5010481;28;20458;-58
2021/11/10 11:03:48;;;;;;;11.25;9.55;;;7.20;99.90;;;;;;5010152;28;20054;-55
2021/11/10 11:06:23;;;;;;;12.65;9.77;;;6.90;99.90;;;;;;5008199;28;20026;-53
2021/11/10 11:08:49;;;;;;;16.25;11.13;;;6.90;99.90;;;;;;5010395;28;20040;-55
2021/11/10 11:11:37;;;;;;;17.27;10.60;;;6.90;99.90;;;;;;5010901;28;20053;-57
2021/11/10 11:14:03;;;;;;;14.13;10.00;;;6.90;99.90;;;;;;5011148;28;20029;-58
2021/11/10 11:16:41;;;;;;;17.70;10.20;;;7.00;99.90;;;;;;5009046;28;20463;-53
2021/11/10 11:19:13;;;;;;;17.08;11.52;;;7.00;99.90;;;;;;5012884;28;20032;-58
2021/11/10 11:21:54;;;;;;;14.45;11.13;;;6.80;99.90;;;;;;5013846;28;20603;-53
2021/11/10 11:24:32;;;;;;;13.20;10.35;;;6.70;99.90;;;;;;5013827;28;20056;-58
2021/11/10 11:27:18;;;;;;;12.65;10.13;;;6.60;99.90;;;;;;5013150;28;20115;-50
2021/11/10 11:29:45;;;;;;;14.35;10.95;;;6.50;99.90;;;;;;5013722;28;20109;-55
2021/11/10 11:32:19;;;;;;;14.32;9.90;;;6.50;99.90;;;;;;5013889;28;20516;-52
2021/11/10 11:34:48;;;;;;;13.60;10.65;;;6.50;99.90;;;;;;5013726;28;20018;-53
2021/11/10 11:37:14;;;;;;;17.70;12.80;;;6.50;99.90;;;;;;5012761;28;20021;-54
2021/11/10 11:39:40;;;;;;;15.85;11.73;;;6.50;99.90;;;;;;5013365;28;20018;-54
2021/11/10 11:42:06;;;;;;;14.68;11.35;;;6.60;99.90;;;;;;5013650;28;20037;-57
2021/11/10 11:44:34;;;;;;;16.02;11.35;;;6.70;99.90;;;;;;5013293;28;20113;-56
2021/11/10 11:47:06;;;;;;;17.92;10.35;;;6.80;99.90;;;;;;5012641;28;20220;-52
2021/11/10 11:49:31;;;;;;;15.05;11.07;;;6.90;99.90;;;;;;5013179;28;20308;-54
2021/11/10 11:51:58;;;;;;;20.05;11.50;;;7.00;99.90;;;;;;5011684;28;20026;-55
2021/11/10 11:54:25;;;;;;;16.63;10.13;;;7.00;99.90;;;;;;5013219;28;20032;-57
2021/11/10 11:56:51;;;;;;;18.40;11.25;;;7.10;99.90;;;;;;5012185;28;20084;-54
2021/11/10 11:59:18;;;;;;;14.15;11.07;;;7.20;99.90;;;;;;5012799;28;20029;-53
2021/11/10 12:01:44;;;;;;;13.98;11.18;;;7.30;99.90;;;;;;5012955;28;20088;-50
2021/11/10 12:04:12;;;;;;;15.50;10.15;;;7.30;99.90;;;;;;5013010;28;20037;-54
2021/11/10 12:06:48;;;;;;;14.75;10.85;;;7.40;99.90;;;;;;5012387;28;20025;-52
2021/11/10 12:09:19;;;;;;;19.67;10.88;;;7.50;99.90;;;;;;5037244;23;20057;-53
2021/11/10 12:11:50;;;;;;;15.40;10.20;;;7.50;99.90;;;;;;5033148;28;20037;-53
2021/11/10 12:14:22;;;;;;;17.17;9.80;;;7.60;99.90;;;;;;5031824;28;20425;-54
2021/11/10 12:16:48;;;;;;;14.45;11.10;;;7.90;99.90;;;;;;5032251;28;20029;-52
2021/11/10 12:19:28;;;;;;;16.67;11.73;;;7.90;99.90;;;;;;5032979;28;20113;-48
2021/11/10 12:22:10;;;;;;;13.63;10.40;;;7.90;99.90;;;;;;5033540;28;20021;-49
2021/11/10 12:24:51;;;;;;;13.55;9.95;;;7.70;99.90;;;;;;5033305;28;20044;-47
2021/11/10 12:27:33;;;;;;;13.82;10.95;;;7.70;99.90;;;;;;5032193;28;20030;-53
2021/11/10 12:30:09;;;;;;;15.95;11.30;;;7.70;99.90;;;;;;5034548;28;20081;-48
2021/11/10 12:32:35;;;;;;;17.25;11.43;;;7.90;99.90;;;;;;5035384;28;20021;-53
2021/11/10 12:35:03;;;;;;;15.45;10.65;;;7.80;99.90;;;;;;5036938;28;20056;-52
2021/11/10 12:37:34;;;;;;;15.15;11.40;;;7.80;99.90;;;;;;5038228;28;20033;-49
2021/11/10 12:40:04;;;;;;;17.10;10.80;;;7.70;99.90;;;;;;5042768;28;20028;-54
2021/11/10 12:42:43;;;;;;;12.00;10.15;;;7.70;99.90;;;;;;5043020;28;20025;-57
2021/11/10 12:45:09;;;;;;;16.35;11.75;;;7.60;99.90;;;;;;5038584;28;20219;-57